createdAt,value
2016-04-05T00:00:52.780Z,0
2016-04-05T00:01:52.782Z,0
2016-04-05T00:02:52.801Z,0
2016-04-05T00:03:52.788Z,0
2016-04-05T00:04:52.791Z,0
2016-04-05T00:05:52.809Z,0
2016-04-05T00:06:52.813Z,0
2016-04-05T00:07:52.674Z,0
2016-04-05T00:08:52.818Z,0
2016-04-05T00:09:52.820Z,0
2016-04-05T00:10:52.854Z,0
2016-04-05T00:11:52.841Z,0
2016-04-05T00:12:52.687Z,0
2016-04-05T00:13:52.862Z,0
2016-04-05T00:14:52.864Z,0
2016-04-05T00:15:52.882Z,0
2016-04-05T00:16:52.870Z,0
2016-04-05T00:17:52.872Z,0
2016-04-05T00:18:52.891Z,0
2016-04-05T00:19:52.893Z,0
2016-04-05T00:20:52.896Z,0
2016-04-05T00:21:52.899Z,0
2016-04-05T00:22:52.917Z,0
2016-04-05T00:23:52.920Z,0
2016-04-05T00:24:52.938Z,0
2016-04-05T00:25:52.941Z,0
2016-04-05T00:26:52.944Z,0
2016-04-05T00:27:52.947Z,0
2016-04-05T00:28:53.028Z,0
2016-04-05T00:29:52.967Z,0
2016-04-05T00:30:52.955Z,0
2016-04-05T00:31:52.973Z,0
2016-04-05T00:32:52.976Z,0
2016-04-05T00:33:52.994Z,0
2016-04-05T00:34:52.981Z,0
2016-04-05T00:35:52.983Z,0
2016-04-05T00:36:53.002Z,0
2016-04-05T00:37:53.004Z,0
2016-04-05T00:38:53.023Z,0
2016-04-05T00:39:53.026Z,0
2016-04-05T00:40:53.029Z,0
2016-04-05T00:41:53.063Z,0
2016-04-05T00:42:53.049Z,0
2016-04-05T00:43:53.052Z,0
2016-04-05T00:44:53.070Z,0
2016-04-05T00:45:53.057Z,0
2016-04-05T00:46:53.060Z,0
2016-04-05T00:47:53.078Z,0
2016-04-05T00:48:53.065Z,0
2016-04-05T00:49:53.083Z,0
2016-04-05T00:50:53.086Z,0
2016-04-05T00:51:53.104Z,0
2016-04-05T00:52:53.106Z,0
2016-04-05T00:53:53.110Z,0
2016-04-05T00:54:53.112Z,0
2016-04-05T00:55:53.115Z,0
2016-04-05T00:56:53.181Z,0
2016-04-05T00:57:53.136Z,0
2016-04-05T00:58:53.186Z,0
2016-04-05T00:59:53.344Z,0
2016-04-05T01:00:53.160Z,0
2016-04-05T01:01:53.178Z,0
2016-04-05T01:02:53.181Z,0
2016-04-05T01:03:53.169Z,0
2016-04-05T01:04:53.187Z,0
2016-04-05T01:05:53.174Z,0
2016-04-05T01:06:53.177Z,0
2016-04-05T01:07:53.194Z,0
2016-04-05T01:08:53.197Z,0
2016-04-05T01:09:53.216Z,0
2016-04-05T01:10:53.218Z,0
2016-04-05T01:11:53.221Z,0
2016-04-05T01:12:53.223Z,0
2016-04-05T01:13:53.226Z,0
2016-04-05T01:14:53.401Z,0
2016-04-05T01:15:53.231Z,0
2016-04-05T01:16:53.281Z,0
2016-04-05T01:17:53.253Z,0
2016-04-05T01:18:53.256Z,0
2016-04-05T01:19:53.274Z,0
2016-04-05T01:20:53.276Z,0
2016-04-05T01:21:53.264Z,0
2016-04-05T01:22:53.297Z,0
2016-04-05T01:23:53.284Z,0
2016-04-05T01:24:53.287Z,0
2016-04-05T01:25:53.320Z,0
2016-04-05T01:26:53.308Z,0
2016-04-05T01:27:53.342Z,0
2016-04-05T01:28:53.313Z,0
2016-04-05T01:29:53.410Z,0
2016-04-05T01:30:53.334Z,0
2016-04-05T01:31:53.337Z,0
2016-04-05T01:32:53.356Z,0
2016-04-05T01:33:53.358Z,0
2016-04-05T01:34:53.361Z,0
2016-04-05T01:35:53.363Z,0
2016-04-05T01:36:53.366Z,0
2016-04-05T01:37:53.369Z,0
2016-04-05T01:38:53.387Z,0
2016-04-05T01:39:53.391Z,0
2016-04-05T01:40:53.393Z,0
2016-04-05T01:41:53.411Z,0
2016-04-05T01:42:53.399Z,0
2016-04-05T01:43:53.416Z,0
2016-04-05T01:44:53.482Z,0
2016-04-05T01:45:53.458Z,0
2016-04-05T01:46:53.764Z,0
2016-04-05T01:47:53.110Z,0
2016-04-05T01:48:55.735Z,0
2016-04-05T01:49:55.185Z,0
2016-04-05T01:50:53.484Z,0
2016-04-05T01:51:53.456Z,0
2016-04-05T01:52:53.474Z,0
2016-04-05T01:53:53.476Z,0
2016-04-05T01:54:53.480Z,0
2016-04-05T01:55:53.498Z,0
2016-04-05T01:56:53.485Z,0
2016-04-05T01:57:53.519Z,0
2016-04-05T01:58:53.490Z,0
2016-04-05T01:59:53.775Z,0
2016-04-05T02:00:53.528Z,0
2016-04-05T02:01:53.530Z,0
2016-04-05T02:02:53.517Z,0
2016-04-05T02:03:53.536Z,0
2016-04-05T02:04:53.554Z,0
2016-04-05T02:05:53.542Z,0
2016-04-05T02:06:53.559Z,0
2016-04-05T02:07:53.567Z,0
2016-04-05T02:08:53.570Z,0
2016-04-05T02:09:53.572Z,0
2016-04-05T02:10:53.575Z,0
2016-04-05T02:11:53.577Z,0
2016-04-05T02:12:53.580Z,0
2016-04-05T02:13:53.614Z,0
2016-04-05T02:14:53.882Z,0
2016-04-05T02:15:53.604Z,0
2016-04-05T02:16:53.606Z,0
2016-04-05T02:17:53.624Z,0
2016-04-05T02:18:53.612Z,0
2016-04-05T02:19:53.646Z,0
2016-04-05T02:20:53.633Z,0
2016-04-05T02:21:53.635Z,0
2016-04-05T02:22:53.654Z,0
2016-04-05T02:23:53.657Z,0
2016-04-05T02:24:53.659Z,0
2016-04-05T02:25:53.662Z,0
2016-04-05T02:26:53.664Z,0
2016-04-05T02:27:53.667Z,0
2016-04-05T02:28:53.529Z,0
2016-04-05T02:29:53.703Z,0
2016-04-05T02:30:53.707Z,0
2016-04-05T02:31:53.694Z,0
2016-04-05T02:32:53.712Z,0
2016-04-05T02:33:53.714Z,0
2016-04-05T02:34:53.717Z,0
2016-04-05T02:35:53.720Z,0
2016-04-05T02:36:53.739Z,0
2016-04-05T02:37:53.741Z,0
2016-04-05T02:38:53.744Z,0
2016-04-05T02:39:53.746Z,0
2016-04-05T02:40:53.749Z,0
2016-04-05T02:41:53.752Z,0
2016-04-05T02:42:53.785Z,0
2016-04-05T02:43:53.617Z,0
2016-04-05T02:44:54.150Z,0
2016-04-05T02:45:53.765Z,0
2016-04-05T02:46:53.770Z,0
2016-04-05T02:47:53.760Z,0
2016-04-05T02:48:53.750Z,0
2016-04-05T02:49:53.756Z,0
2016-04-05T02:50:53.739Z,0
2016-04-05T02:51:53.753Z,0
2016-04-05T02:52:53.751Z,0
2016-04-05T02:53:53.749Z,0
2016-04-05T02:54:53.748Z,0
2016-04-05T02:55:53.780Z,0
2016-04-05T02:56:53.750Z,0
2016-04-05T02:57:53.766Z,0
2016-04-05T02:58:53.767Z,0
2016-04-05T02:59:53.878Z,0
2016-04-05T03:00:53.770Z,0
2016-04-05T03:01:53.788Z,0
2016-04-05T03:02:53.790Z,0
2016-04-05T03:03:53.808Z,0
2016-04-05T03:04:53.810Z,0
2016-04-05T03:05:53.813Z,0
2016-04-05T03:06:53.815Z,0
2016-04-05T03:07:53.833Z,0
2016-04-05T03:08:53.836Z,0
2016-04-05T03:09:53.824Z,0
2016-04-05T03:10:53.842Z,0
2016-04-05T03:11:53.844Z,0
2016-04-05T03:12:53.847Z,0
2016-04-05T03:13:53.866Z,0
2016-04-05T03:14:53.899Z,0
2016-04-05T03:15:53.871Z,0
2016-04-05T03:16:53.874Z,0
2016-04-05T03:17:53.876Z,0
2016-04-05T03:18:53.879Z,0
2016-04-05T03:19:53.881Z,0
2016-04-05T03:20:53.900Z,0
2016-04-05T03:21:53.903Z,0
2016-04-05T03:22:53.906Z,0
2016-04-05T03:23:53.908Z,0
2016-04-05T03:24:53.926Z,0
2016-04-05T03:25:53.929Z,0
2016-04-05T03:26:53.932Z,0
2016-04-05T03:27:53.950Z,0
2016-04-05T03:28:53.953Z,0
2016-04-05T03:29:53.987Z,0
2016-04-05T03:30:53.943Z,0
2016-04-05T03:31:53.962Z,0
2016-04-05T03:32:53.964Z,0
2016-04-05T03:33:53.967Z,0
2016-04-05T03:34:53.970Z,0
2016-04-05T03:35:53.969Z,0
2016-04-05T03:36:54.034Z,0
2016-04-05T03:37:53.990Z,0
2016-04-05T03:38:53.994Z,0
2016-04-05T03:39:53.996Z,0
2016-04-05T03:40:54.014Z,0
2016-04-05T03:41:54.001Z,0
2016-04-05T03:42:54.019Z,0
2016-04-05T03:43:54.022Z,0
2016-04-05T03:44:54.056Z,0
2016-04-05T03:45:54.090Z,0
2016-04-05T03:46:54.046Z,0
2016-04-05T03:47:54.033Z,0
2016-04-05T03:48:54.067Z,0
2016-04-05T03:49:54.054Z,0
2016-04-05T03:50:54.057Z,0
2016-04-05T03:51:54.074Z,0
2016-04-05T03:52:54.077Z,0
2016-04-05T03:53:54.080Z,0
2016-04-05T03:54:54.099Z,0
2016-04-05T03:55:54.086Z,0
2016-04-05T03:56:54.088Z,0
2016-04-05T03:57:54.091Z,0
2016-04-05T03:58:54.125Z,0
2016-04-05T03:59:54.159Z,0
2016-04-05T04:00:54.112Z,0
2016-04-05T04:01:54.133Z,0
2016-04-05T04:02:54.136Z,0
2016-04-05T04:03:54.153Z,0
2016-04-05T04:04:54.156Z,0
2016-04-05T04:05:54.159Z,0
2016-04-05T04:06:54.162Z,0
2016-04-05T04:07:54.165Z,0
2016-04-05T04:08:54.167Z,0
2016-04-05T04:09:54.170Z,0
2016-04-05T04:10:54.189Z,0
2016-04-05T04:11:54.192Z,0
2016-04-05T04:12:54.210Z,0
2016-04-05T04:13:54.213Z,0
2016-04-05T04:14:54.199Z,0
2016-04-05T04:15:54.218Z,0
2016-04-05T04:16:54.205Z,0
2016-04-05T04:17:54.223Z,0
2016-04-05T04:18:54.226Z,0
2016-04-05T04:19:54.229Z,0
2016-04-05T04:20:54.246Z,0
2016-04-05T04:21:54.249Z,0
2016-04-05T04:22:54.251Z,0
2016-04-05T04:23:54.254Z,0
2016-04-05T04:24:54.273Z,0
2016-04-05T04:25:54.276Z,0
2016-04-05T04:26:54.279Z,0
2016-04-05T04:27:54.281Z,0
2016-04-05T04:28:54.284Z,0
2016-04-05T04:29:54.301Z,0
2016-04-05T04:30:54.304Z,0
2016-04-05T04:31:54.323Z,0
2016-04-05T04:32:54.307Z,0
2016-04-05T04:33:54.310Z,0
2016-04-05T04:34:54.313Z,0
2016-04-05T04:35:54.331Z,0
2016-04-05T04:36:54.333Z,0
2016-04-05T04:37:54.353Z,0
2016-04-05T04:38:54.355Z,0
2016-04-05T04:39:54.389Z,0
2016-04-05T04:40:54.361Z,0
2016-04-05T04:41:54.363Z,0
2016-04-05T04:42:54.366Z,0
2016-04-05T04:43:54.369Z,0
2016-04-05T04:44:54.371Z,0
2016-04-05T04:45:54.405Z,0
2016-04-05T04:46:54.408Z,0
2016-04-05T04:47:54.395Z,4
2016-04-05T04:48:54.397Z,4
2016-04-05T04:49:54.416Z,4
2016-04-05T04:50:54.418Z,4
2016-04-05T04:51:54.437Z,4
2016-04-05T04:52:54.424Z,0
2016-04-05T04:53:54.426Z,4
2016-04-05T04:54:54.446Z,4
2016-04-05T04:55:54.448Z,4
2016-04-05T04:56:54.450Z,8
2016-04-05T04:57:54.454Z,4
2016-04-05T04:58:54.471Z,8
2016-04-05T04:59:54.474Z,8
2016-04-05T05:00:54.461Z,12
2016-04-05T05:01:54.479Z,8
2016-04-05T05:02:54.482Z,12
2016-04-05T05:03:54.484Z,8
2016-04-05T05:04:54.487Z,12
2016-04-05T05:05:54.490Z,12
2016-04-05T05:06:54.508Z,12
2016-04-05T05:07:54.511Z,12
2016-04-05T05:08:54.529Z,12
2016-04-05T05:09:54.532Z,12
2016-04-05T05:10:54.534Z,12
2016-04-05T05:11:54.537Z,12
2016-04-05T05:12:54.540Z,12
2016-04-05T05:13:54.558Z,12
2016-04-05T05:14:54.545Z,12
2016-04-05T05:15:54.548Z,12
2016-04-05T05:16:54.551Z,12
2016-04-05T05:17:54.585Z,8
2016-04-05T05:18:54.571Z,8
2016-04-05T05:19:54.575Z,8
2016-04-05T05:20:54.593Z,12
2016-04-05T05:21:54.579Z,12
2016-04-05T05:22:54.599Z,8
2016-04-05T05:23:54.601Z,8
2016-04-05T05:24:54.619Z,12
2016-04-05T05:25:54.607Z,12
2016-04-05T05:26:54.593Z,12
2016-04-05T05:27:54.627Z,12
2016-04-05T05:28:54.630Z,16
2016-04-05T05:29:54.649Z,20
2016-04-05T05:30:54.635Z,20
2016-04-05T05:31:54.654Z,24
2016-04-05T05:32:54.656Z,28
2016-04-05T05:33:54.675Z,36
2016-04-05T05:34:54.662Z,40
2016-04-05T05:35:54.695Z,48
2016-04-05T05:36:54.698Z,52
2016-04-05T05:37:54.686Z,60
2016-04-05T05:38:54.703Z,68
2016-04-05T05:39:54.535Z,72
2016-04-05T05:40:54.694Z,72
2016-04-05T05:41:54.711Z,72
2016-04-05T05:42:54.715Z,68
2016-04-05T05:43:54.717Z,72
2016-04-05T05:44:54.720Z,68
2016-04-05T05:45:54.723Z,68
2016-04-05T05:46:54.725Z,68
2016-04-05T05:47:54.728Z,72
2016-04-05T05:48:54.746Z,76
2016-04-05T05:49:54.749Z,80
2016-04-05T05:50:54.766Z,92
2016-04-05T05:51:54.754Z,100
2016-04-05T05:52:54.772Z,104
2016-04-05T05:53:54.775Z,108
2016-04-05T05:54:54.794Z,116
2016-04-05T05:55:54.780Z,132
2016-04-05T05:56:54.783Z,140
2016-04-05T05:57:54.802Z,140
2016-04-05T05:58:54.804Z,152
2016-04-05T05:59:54.823Z,152
2016-04-05T06:00:54.810Z,144
2016-04-05T06:01:54.829Z,140
2016-04-05T06:02:54.815Z,144
2016-04-05T06:03:54.833Z,140
2016-04-05T06:04:54.852Z,144
2016-04-05T06:05:54.839Z,144
2016-04-05T06:06:54.856Z,148
2016-04-05T06:07:54.845Z,148
2016-04-05T06:08:54.878Z,144
2016-04-05T06:09:54.865Z,136
2016-04-05T06:10:54.868Z,136
2016-04-05T06:11:54.870Z,140
2016-04-05T06:12:54.889Z,140
2016-04-05T06:13:54.892Z,136
2016-04-05T06:14:54.894Z,140
2016-04-05T06:15:54.897Z,140
2016-04-05T06:16:54.916Z,144
2016-04-05T06:17:54.918Z,144
2016-04-05T06:18:54.921Z,152
2016-04-05T06:19:54.939Z,156
2016-04-05T06:20:54.941Z,144
2016-04-05T06:21:54.929Z,132
2016-04-05T06:22:54.932Z,128
2016-04-05T06:23:54.950Z,132
2016-04-05T06:24:54.953Z,128
2016-04-05T06:25:54.955Z,120
2016-04-05T06:26:54.957Z,124
2016-04-05T06:27:54.977Z,128
2016-04-05T06:28:54.963Z,128
2016-04-05T06:29:54.996Z,136
2016-04-05T06:30:54.985Z,132
2016-04-05T06:31:55.018Z,136
2016-04-05T06:32:55.005Z,140
2016-04-05T06:33:55.007Z,160
2016-04-05T06:34:55.010Z,184
2016-04-05T06:35:55.013Z,212
2016-04-05T06:36:54.859Z,240
2016-04-05T06:37:55.018Z,252
2016-04-05T06:38:55.037Z,256
2016-04-05T06:39:55.040Z,260
2016-04-05T06:40:55.042Z,256
2016-04-05T06:41:55.045Z,252
2016-04-05T06:42:55.048Z,248
2016-04-05T06:43:55.066Z,248
2016-04-05T06:44:55.100Z,248
2016-04-05T06:45:55.087Z,256
2016-04-05T06:46:55.075Z,260
2016-04-05T06:47:55.092Z,276
2016-04-05T06:48:55.094Z,292
2016-04-05T06:49:55.130Z,308
2016-04-05T06:50:55.100Z,320
2016-04-05T06:51:55.103Z,324
2016-04-05T06:52:54.966Z,328
2016-04-05T06:53:55.124Z,328
2016-04-05T06:54:55.127Z,344
2016-04-05T06:55:55.130Z,356
2016-04-05T06:56:55.148Z,372
2016-04-05T06:57:55.151Z,392
2016-04-05T06:58:55.154Z,408
2016-04-05T06:59:55.156Z,432
2016-04-05T07:00:55.159Z,460
2016-04-05T07:01:55.177Z,472
2016-04-05T07:02:55.179Z,500
2016-04-05T07:03:55.182Z,512
2016-04-05T07:04:55.185Z,508
2016-04-05T07:05:55.187Z,536
2016-04-05T07:06:55.221Z,544
2016-04-05T07:07:55.258Z,540
2016-04-05T07:08:55.306Z,544
2016-04-05T07:09:55.231Z,524
2016-04-05T07:10:55.250Z,504
2016-04-05T07:11:55.236Z,508
2016-04-05T07:12:55.255Z,516
2016-04-05T07:13:55.289Z,552
2016-04-05T07:14:55.261Z,592
2016-04-05T07:15:55.450Z,660
2016-04-05T07:16:55.110Z,716
2016-04-05T07:17:55.269Z,744
2016-04-05T07:18:55.288Z,776
2016-04-05T07:19:55.305Z,812
2016-04-05T07:20:55.308Z,832
2016-04-05T07:21:55.311Z,812
2016-04-05T07:22:55.313Z,760
2016-04-05T07:23:55.301Z,696
2016-04-05T07:24:55.304Z,620
2016-04-05T07:25:55.306Z,640
2016-04-05T07:26:55.324Z,632
2016-04-05T07:27:55.311Z,588
2016-04-05T07:28:55.329Z,588
2016-04-05T07:29:55.332Z,528
2016-04-05T07:30:55.334Z,508
2016-04-05T07:31:55.354Z,520
2016-04-05T07:32:55.371Z,532
2016-04-05T07:33:55.373Z,568
2016-04-05T07:34:55.376Z,580
2016-04-05T07:35:55.379Z,564
2016-04-05T07:36:55.382Z,536
2016-04-05T07:37:55.384Z,508
2016-04-05T07:38:55.420Z,496
2016-04-05T07:39:55.265Z,476
2016-04-05T07:40:55.439Z,452
2016-04-05T07:41:55.427Z,448
2016-04-05T07:42:55.430Z,444
2016-04-05T07:43:55.417Z,440
2016-04-05T07:44:55.419Z,440
2016-04-05T07:45:55.453Z,444
2016-04-05T07:46:55.441Z,448
2016-04-05T07:47:55.443Z,452
2016-04-05T07:48:55.461Z,432
2016-04-05T07:49:55.464Z,416
2016-04-05T07:50:55.467Z,392
2016-04-05T07:51:55.485Z,400
2016-04-05T07:52:55.472Z,404
2016-04-05T07:53:55.491Z,428
2016-04-05T07:54:55.493Z,444
2016-04-05T07:55:55.496Z,444
2016-04-05T07:56:55.530Z,464
2016-04-05T07:57:55.501Z,484
2016-04-05T07:58:55.535Z,496
2016-04-05T07:59:55.538Z,480
2016-04-05T08:00:55.540Z,436
2016-04-05T08:01:55.543Z,396
2016-04-05T08:02:55.420Z,360
2016-04-05T08:03:55.580Z,364
2016-04-05T08:04:55.567Z,388
2016-04-05T08:05:55.570Z,392
2016-04-05T08:06:55.573Z,400
2016-04-05T08:07:55.575Z,356
2016-04-05T08:08:55.578Z,296
2016-04-05T08:09:55.596Z,288
2016-04-05T08:10:55.630Z,316
2016-04-05T08:11:55.617Z,384
2016-04-05T08:12:55.619Z,396
2016-04-05T08:13:55.623Z,436
2016-04-05T08:14:55.641Z,404
2016-04-05T08:15:55.659Z,328
2016-04-05T08:16:55.630Z,300
2016-04-05T08:17:55.633Z,304
2016-04-05T08:18:55.652Z,336
2016-04-05T08:19:55.654Z,380
2016-04-05T08:20:55.673Z,408
2016-04-05T08:21:55.675Z,444
2016-04-05T08:22:55.677Z,464
2016-04-05T08:23:55.696Z,404
2016-04-05T08:24:55.698Z,380
2016-04-05T08:25:55.718Z,392
2016-04-05T08:26:55.704Z,412
2016-04-05T08:27:55.723Z,440
2016-04-05T08:28:55.726Z,480
2016-04-05T08:29:55.712Z,492
2016-04-05T08:30:55.762Z,500
2016-04-05T08:31:55.749Z,516
2016-04-05T08:32:55.767Z,536
2016-04-05T08:33:55.754Z,492
2016-04-05T08:34:55.757Z,444
2016-04-05T08:35:55.776Z,424
2016-04-05T08:36:55.778Z,432
2016-04-05T08:37:55.781Z,400
2016-04-05T08:38:55.783Z,392
2016-04-05T08:39:55.786Z,368
2016-04-05T08:40:55.789Z,308
2016-04-05T08:41:55.806Z,276
2016-04-05T08:42:55.810Z,220
2016-04-05T08:43:55.844Z,244
2016-04-05T08:44:55.846Z,284
2016-04-05T08:45:55.896Z,328
2016-04-05T08:46:55.836Z,328
2016-04-05T08:47:55.870Z,308
2016-04-05T08:48:55.857Z,276
2016-04-05T08:49:55.861Z,256
2016-04-05T08:50:55.863Z,244
2016-04-05T08:51:55.880Z,248
2016-04-05T08:52:55.899Z,284
2016-04-05T08:53:55.885Z,300
2016-04-05T08:54:55.889Z,272
2016-04-05T08:55:55.891Z,256
2016-04-05T08:56:55.910Z,244
2016-04-05T08:57:55.913Z,256
2016-04-05T08:58:55.915Z,244
2016-04-05T08:59:55.949Z,240
2016-04-05T09:00:55.983Z,240
2016-04-05T09:01:55.954Z,244
2016-04-05T09:02:55.957Z,244
2016-04-05T09:03:55.945Z,240
2016-04-05T09:04:55.963Z,232
2016-04-05T09:05:55.965Z,224
2016-04-05T09:06:55.984Z,216
2016-04-05T09:07:55.970Z,208
2016-04-05T09:08:56.020Z,224
2016-04-05T09:09:55.997Z,232
2016-04-05T09:10:55.999Z,248
2016-04-05T09:11:56.003Z,252
2016-04-05T09:12:56.020Z,324
2016-04-05T09:13:56.008Z,352
2016-04-05T09:14:56.025Z,360
2016-04-05T09:15:56.169Z,368
2016-04-05T09:16:56.031Z,372
2016-04-05T09:17:56.033Z,392
2016-04-05T09:18:56.052Z,400
2016-04-05T09:19:56.071Z,400
2016-04-05T09:20:56.074Z,408
2016-04-05T09:21:56.060Z,408
2016-04-05T09:22:56.079Z,416
2016-04-05T09:23:56.082Z,404
2016-04-05T09:24:56.084Z,408
2016-04-05T09:25:56.102Z,408
2016-04-05T09:26:56.104Z,428
2016-04-05T09:27:56.093Z,436
2016-04-05T09:28:56.126Z,432
2016-04-05T09:29:56.113Z,440
2016-04-05T09:30:56.021Z,440
2016-04-05T09:31:56.134Z,452
2016-04-05T09:32:56.137Z,464
2016-04-05T09:33:56.154Z,484
2016-04-05T09:34:56.157Z,500
2016-04-05T09:35:56.160Z,496
2016-04-05T09:36:56.210Z,496
2016-04-05T09:37:56.229Z,496
2016-04-05T09:38:56.184Z,496
2016-04-05T09:39:56.187Z,460
2016-04-05T09:40:56.205Z,452
2016-04-05T09:41:56.223Z,432
2016-04-05T09:42:56.210Z,400
2016-04-05T09:43:56.214Z,440
2016-04-05T09:44:56.231Z,472
2016-04-05T09:45:56.327Z,488
2016-04-05T09:46:56.236Z,544
2016-04-05T09:47:56.224Z,592
2016-04-05T09:48:56.241Z,644
2016-04-05T09:49:56.244Z,668
2016-04-05T09:50:56.264Z,724
2016-04-05T09:51:56.282Z,752
2016-04-05T09:52:56.268Z,784
2016-04-05T09:53:56.272Z,788
2016-04-05T09:54:56.290Z,780
2016-04-05T09:55:56.277Z,800
2016-04-05T09:56:56.279Z,776
2016-04-05T09:57:56.313Z,784
2016-04-05T09:58:56.316Z,784
2016-04-05T09:59:56.303Z,752
2016-04-05T10:00:56.196Z,752
2016-04-05T10:01:56.370Z,736
2016-04-05T10:02:56.343Z,712
2016-04-05T10:03:56.329Z,728
2016-04-05T10:04:56.348Z,760
2016-04-05T10:05:56.350Z,768
2016-04-05T10:06:56.353Z,764
2016-04-05T10:07:56.355Z,748
2016-04-05T10:08:56.373Z,704
2016-04-05T10:09:56.376Z,660
2016-04-05T10:10:56.394Z,652
2016-04-05T10:11:56.225Z,672
2016-04-05T10:12:56.384Z,684
2016-04-05T10:13:56.247Z,740
2016-04-05T10:14:56.406Z,808
2016-04-05T10:15:56.456Z,808
2016-04-05T10:16:56.427Z,872
2016-04-05T10:17:56.430Z,908
2016-04-05T10:18:56.433Z,964
2016-04-05T10:19:56.435Z,864
2016-04-05T10:20:56.453Z,712
2016-04-05T10:21:56.455Z,668
2016-04-05T10:22:56.474Z,660
2016-04-05T10:23:56.477Z,712
2016-04-05T10:24:56.463Z,648
2016-04-05T10:25:56.483Z,600
2016-04-05T10:26:56.485Z,552
2016-04-05T10:27:56.519Z,536
2016-04-05T10:28:56.522Z,540
2016-04-05T10:29:56.493Z,508
2016-04-05T10:30:56.512Z,464
2016-04-05T10:31:56.514Z,448
2016-04-05T10:32:56.517Z,468
2016-04-05T10:33:56.535Z,488
2016-04-05T10:34:56.538Z,492
2016-04-05T10:35:56.540Z,492
2016-04-05T10:36:56.543Z,552
2016-04-05T10:37:56.561Z,540
2016-04-05T10:38:56.564Z,584
2016-04-05T10:39:56.582Z,656
2016-04-05T10:40:56.569Z,656
2016-04-05T10:41:56.603Z,684
2016-04-05T10:42:56.606Z,696
2016-04-05T10:43:56.624Z,616
2016-04-05T10:44:56.612Z,604
2016-04-05T10:45:56.473Z,640
2016-04-05T10:46:56.476Z,660
2016-04-05T10:47:56.635Z,708
2016-04-05T10:48:56.638Z,820
2016-04-05T10:49:56.641Z,888
2016-04-05T10:50:56.643Z,932
2016-04-05T10:51:56.646Z,944
2016-04-05T10:52:56.664Z,884
2016-04-05T10:53:56.666Z,844
2016-04-05T10:54:56.685Z,792
2016-04-05T10:55:56.671Z,684
2016-04-05T10:56:56.691Z,660
2016-04-05T10:57:56.693Z,644
2016-04-05T10:58:56.696Z,612
2016-04-05T10:59:56.683Z,532
2016-04-05T11:00:56.718Z,512
2016-04-05T11:01:56.735Z,580
2016-04-05T11:02:56.738Z,648
2016-04-05T11:03:56.725Z,688
2016-04-05T11:04:56.760Z,652
2016-04-05T11:05:56.746Z,596
2016-04-05T11:06:56.765Z,620
2016-04-05T11:07:56.614Z,652
2016-04-05T11:08:56.767Z,632
2016-04-05T11:09:56.787Z,640
2016-04-05T11:10:56.789Z,632
2016-04-05T11:11:56.792Z,660
2016-04-05T11:12:56.794Z,600
2016-04-05T11:13:56.812Z,592
2016-04-05T11:14:56.815Z,588
2016-04-05T11:15:56.818Z,564
2016-04-05T11:16:56.821Z,620
2016-04-05T11:17:56.839Z,712
2016-04-05T11:18:56.842Z,660
2016-04-05T11:19:56.845Z,588
2016-04-05T11:20:56.862Z,544
2016-04-05T11:21:56.850Z,536
2016-04-05T11:22:56.868Z,556
2016-04-05T11:23:56.871Z,564
2016-04-05T11:24:56.905Z,572
2016-04-05T11:25:56.907Z,616
2016-04-05T11:26:56.722Z,604
2016-04-05T11:27:56.897Z,628
2016-04-05T11:28:56.916Z,616
2016-04-05T11:29:56.903Z,692
2016-04-05T11:30:56.921Z,752
2016-04-05T11:31:57.330Z,832
2016-04-05T11:32:56.927Z,904
2016-04-05T11:33:56.944Z,968
2016-04-05T11:34:56.963Z,1084
2016-04-05T11:35:56.982Z,1040
2016-04-05T11:36:56.984Z,1156
2016-04-05T11:37:56.971Z,1220
2016-04-05T11:38:56.973Z,1224
2016-04-05T11:39:56.976Z,1200
2016-04-05T11:40:56.995Z,1216
2016-04-05T11:41:56.997Z,1152
2016-04-05T11:42:57.000Z,1160
2016-04-05T11:43:57.017Z,1144
2016-04-05T11:44:57.020Z,1140
2016-04-05T11:45:57.039Z,1192
2016-04-05T11:46:57.056Z,1160
2016-04-05T11:47:57.060Z,1136
2016-04-05T11:48:57.062Z,1128
2016-04-05T11:49:57.065Z,1152
2016-04-05T11:50:57.083Z,1124
2016-04-05T11:51:57.100Z,1112
2016-04-05T11:52:57.095Z,1112
2016-04-05T11:53:57.088Z,1088
2016-04-05T11:54:57.082Z,1096
2016-04-05T11:55:57.091Z,1096
2016-04-05T11:56:57.055Z,1052
2016-04-05T11:57:57.055Z,1040
2016-04-05T11:58:57.070Z,1004
2016-04-05T11:59:57.069Z,840
2016-04-05T12:00:57.085Z,716
2016-04-05T12:01:57.084Z,588
2016-04-05T12:02:57.086Z,364
2016-04-05T12:03:57.120Z,276
2016-04-05T12:04:57.105Z,264
2016-04-05T12:05:57.122Z,292
2016-04-05T12:06:57.125Z,340
2016-04-05T12:07:57.127Z,424
2016-04-05T12:08:57.144Z,472
2016-04-05T12:09:57.131Z,460
2016-04-05T12:10:57.148Z,404
2016-04-05T12:11:57.167Z,392
2016-04-05T12:12:57.170Z,388
2016-04-05T12:13:57.172Z,364
2016-04-05T12:14:57.175Z,392
2016-04-05T12:15:57.193Z,420
2016-04-05T12:16:57.195Z,452
2016-04-05T12:17:57.198Z,492
2016-04-05T12:18:57.217Z,528
2016-04-05T12:19:57.220Z,532
2016-04-05T12:20:57.238Z,564
2016-04-05T12:21:57.225Z,608
2016-04-05T12:22:57.243Z,656
2016-04-05T12:23:57.246Z,700
2016-04-05T12:24:57.249Z,744
2016-04-05T12:25:57.283Z,776
2016-04-05T12:26:57.269Z,812
2016-04-05T12:27:57.288Z,792
2016-04-05T12:28:57.290Z,800
2016-04-05T12:29:57.294Z,776
2016-04-05T12:31:11.424Z,796
2016-04-05T12:31:57.330Z,792
2016-04-05T12:32:57.317Z,716
2016-04-05T12:33:57.320Z,704
2016-04-05T12:34:57.322Z,716
2016-04-05T12:35:57.325Z,732
2016-04-05T12:36:57.343Z,668
2016-04-05T12:37:57.346Z,608
2016-04-05T12:38:57.349Z,608
2016-04-05T12:39:57.368Z,656
2016-04-05T12:40:57.526Z,716
2016-04-05T12:41:57.372Z,628
2016-04-05T12:42:57.390Z,584
2016-04-05T12:43:57.393Z,568
2016-04-05T12:44:57.396Z,576
2016-04-05T12:45:57.399Z,576
2016-04-05T12:46:57.417Z,656
2016-04-05T12:47:57.419Z,672
2016-04-05T12:48:57.267Z,644
2016-04-05T12:49:57.426Z,616
2016-04-05T12:50:57.428Z,620
2016-04-05T12:51:57.447Z,640
2016-04-05T12:52:57.450Z,648
2016-04-05T12:53:57.467Z,680
2016-04-05T12:54:57.486Z,680
2016-04-05T12:55:57.488Z,712
2016-04-05T12:56:57.475Z,716
2016-04-05T12:57:57.493Z,700
2016-04-05T12:58:57.497Z,716
2016-04-05T12:59:57.515Z,712
2016-04-05T13:00:58.907Z,668
2016-04-05T13:01:57.535Z,664
2016-04-05T13:02:57.523Z,660
2016-04-05T13:03:57.525Z,608
2016-04-05T13:04:57.543Z,584
2016-04-05T13:05:57.562Z,612
2016-04-05T13:06:57.548Z,696
2016-04-05T13:07:57.551Z,736
2016-04-05T13:08:57.571Z,720
2016-04-05T13:09:57.573Z,712
2016-04-05T13:10:57.591Z,748
2016-04-05T13:11:57.625Z,748
2016-04-05T13:12:57.612Z,740
2016-04-05T13:13:57.599Z,732
2016-04-05T13:14:57.618Z,756
2016-04-05T13:15:57.683Z,812
2016-04-05T13:16:57.591Z,840
2016-04-05T13:17:57.642Z,844
2016-04-05T13:18:57.644Z,840
2016-04-05T13:19:57.662Z,840
2016-04-05T13:20:57.649Z,868
2016-04-05T13:21:57.667Z,888
2016-04-05T13:22:57.686Z,900
2016-04-05T13:23:57.673Z,912
2016-04-05T13:24:57.691Z,924
2016-04-05T13:25:57.710Z,928
2016-04-05T13:26:57.696Z,928
2016-04-05T13:27:57.716Z,900
2016-04-05T13:28:57.718Z,908
2016-04-05T13:29:57.720Z,876
2016-04-05T13:30:57.723Z,868
2016-04-05T13:31:57.835Z,864
2016-04-05T13:32:57.744Z,840
2016-04-05T13:33:57.763Z,776
2016-04-05T13:34:57.765Z,764
2016-04-05T13:35:57.768Z,764
2016-04-05T13:36:57.786Z,792
2016-04-05T13:37:57.788Z,812
2016-04-05T13:38:57.791Z,808
2016-04-05T13:39:57.793Z,804
2016-04-05T13:40:57.797Z,748
2016-04-05T13:41:57.815Z,768
2016-04-05T13:42:57.849Z,752
2016-04-05T13:43:58.054Z,776
2016-04-05T13:44:57.839Z,780
2016-04-05T13:45:57.857Z,776
2016-04-05T13:46:58.048Z,752
2016-04-05T13:47:57.863Z,736
2016-04-05T13:48:57.709Z,708
2016-04-05T13:49:58.900Z,696
2016-04-05T13:50:57.886Z,704
2016-04-05T13:51:57.889Z,700
2016-04-05T13:52:57.907Z,696
2016-04-05T13:53:57.911Z,684
2016-04-05T13:54:57.913Z,680
2016-04-05T13:55:57.931Z,676
2016-04-05T13:56:57.933Z,680
2016-04-05T13:57:57.936Z,692
2016-04-05T13:58:57.939Z,696
2016-04-05T13:59:57.957Z,704
2016-04-05T14:00:57.960Z,716
2016-04-05T14:01:58.119Z,720
2016-04-05T14:02:57.966Z,720
2016-04-05T14:03:57.968Z,716
2016-04-05T14:04:57.986Z,700
2016-04-05T14:05:57.988Z,688
2016-04-05T14:06:58.023Z,664
2016-04-05T14:07:58.026Z,664